createdAt,value
2022-08-12T00:00:40.576Z,0.00
2022-08-12T00:02:03.917Z,0.00
2022-08-12T00:02:41.811Z,0.00
2022-08-12T00:03:40.625Z,0.00
2022-08-12T00:04:40.556Z,0.00
2022-08-12T00:05:57.182Z,0.00
2022-08-12T00:06:41.570Z,0.00
2022-08-12T00:07:40.568Z,0.00
2022-08-12T00:08:40.649Z,0.00
2022-08-12T00:09:40.482Z,0.00
2022-08-12T00:10:40.477Z,0.00
2022-08-12T00:11:40.465Z,0.00
2022-08-12T00:12:40.770Z,0.00
2022-08-12T00:13:40.446Z,0.00
2022-08-12T00:14:40.432Z,0.00
2022-08-12T00:15:40.426Z,0.00
2022-08-12T00:16:40.431Z,0.00
2022-08-12T00:17:40.406Z,0.00
2022-08-12T00:18:40.401Z,0.00
2022-08-12T00:19:40.384Z,0.00
2022-08-12T00:20:40.377Z,0.00
2022-08-12T00:21:40.445Z,0.00
2022-08-12T00:22:40.537Z,0.00
2022-08-12T00:23:40.346Z,0.00
2022-08-12T00:24:40.396Z,0.00
2022-08-12T00:26:18.991Z,0.00
2022-08-12T00:26:41.358Z,0.00
2022-08-12T00:27:43.920Z,0.00
2022-08-12T00:28:40.298Z,0.00
2022-08-12T00:29:41.788Z,0.00
2022-08-12T00:30:40.281Z,0.00
2022-08-12T00:31:40.289Z,0.00
2022-08-12T00:32:40.275Z,0.00
2022-08-12T00:33:52.639Z,0.00
2022-08-12T00:34:41.264Z,0.00
2022-08-12T00:35:40.435Z,0.00
2022-08-12T00:36:40.223Z,0.00
2022-08-12T00:37:40.233Z,0.00
2022-08-12T00:38:40.199Z,0.00
2022-08-12T00:39:40.240Z,0.00
2022-08-12T00:40:40.182Z,0.00
2022-08-12T00:41:40.169Z,0.00
2022-08-12T00:42:40.492Z,0.00
2022-08-12T00:43:40.150Z,0.00
2022-08-12T00:44:40.150Z,0.00
2022-08-12T00:45:40.133Z,0.00
2022-08-12T00:46:40.136Z,0.00
2022-08-12T00:47:40.126Z,0.00
2022-08-12T00:48:40.107Z,0.00
2022-08-12T00:49:40.092Z,0.00
2022-08-12T00:50:40.092Z,0.00
2022-08-12T00:51:40.073Z,0.00
2022-08-12T00:52:40.241Z,0.00
2022-08-12T00:53:40.053Z,0.00
2022-08-12T00:54:40.047Z,0.00
2022-08-12T00:55:40.035Z,0.00
2022-08-12T00:56:40.031Z,0.00
2022-08-12T00:57:40.030Z,0.00
2022-08-12T00:58:40.013Z,0.00
2022-08-12T00:59:39.997Z,0.00
2022-08-12T01:00:39.994Z,0.00
2022-08-12T01:02:10.418Z,0.00
2022-08-12T01:02:41.226Z,0.00
2022-08-12T01:03:39.954Z,0.00
2022-08-12T01:04:39.948Z,0.00
2022-08-12T01:05:39.930Z,0.00
2022-08-12T01:06:39.925Z,0.00
2022-08-12T01:07:39.930Z,0.00
2022-08-12T01:08:39.911Z,0.00
2022-08-12T01:09:39.924Z,0.00
2022-08-12T01:10:39.890Z,0.00
2022-08-12T01:11:39.879Z,0.00
2022-08-12T01:12:40.041Z,0.00
2022-08-12T01:13:39.854Z,0.00
2022-08-12T01:14:39.849Z,0.00
2022-08-12T01:15:39.892Z,0.00
2022-08-12T01:16:39.828Z,0.00
2022-08-12T01:17:39.824Z,0.00
2022-08-12T01:18:39.826Z,0.00
2022-08-12T01:19:39.866Z,0.00
2022-08-12T01:20:39.790Z,0.00
2022-08-12T01:21:39.781Z,0.00
2022-08-12T01:22:39.908Z,0.00
2022-08-12T01:23:39.777Z,0.00
2022-08-12T01:24:39.759Z,0.00
2022-08-12T01:25:55.593Z,0.00
2022-08-12T01:26:40.737Z,0.00
2022-08-12T01:27:39.724Z,0.00
2022-08-12T01:28:39.731Z,0.00
2022-08-12T01:29:39.706Z,0.00
2022-08-12T01:30:39.696Z,0.00
2022-08-12T01:31:39.690Z,0.00
2022-08-12T01:32:39.867Z,0.00
2022-08-12T01:33:39.677Z,0.00
2022-08-12T01:34:39.767Z,0.00
2022-08-12T01:35:39.649Z,0.00
2022-08-12T01:36:39.638Z,0.00
2022-08-12T01:37:39.624Z,0.00
2022-08-12T01:38:39.636Z,0.00
2022-08-12T01:40:35.492Z,0.00
2022-08-12T01:40:44.956Z,0.00
2022-08-12T01:41:40.590Z,0.00
2022-08-12T01:42:39.819Z,0.00
2022-08-12T01:43:39.578Z,0.00
2022-08-12T01:44:39.591Z,0.00
2022-08-12T01:45:42.887Z,0.00
2022-08-12T01:46:39.544Z,0.00
2022-08-12T01:47:39.526Z,0.00
2022-08-12T01:48:39.535Z,0.00
2022-08-12T01:49:39.501Z,0.00
2022-08-12T01:50:39.509Z,0.00
2022-08-12T01:52:21.870Z,0.00
2022-08-12T01:52:40.760Z,0.00
2022-08-12T01:53:48.565Z,0.00
2022-08-12T01:54:40.462Z,0.00
2022-08-12T01:55:39.450Z,0.00
2022-08-12T01:56:39.446Z,0.00
2022-08-12T01:57:59.575Z,0.00
2022-08-12T01:58:40.489Z,0.00
2022-08-12T01:59:39.413Z,0.00
2022-08-12T02:00:43.305Z,0.00
2022-08-12T02:01:40.465Z,0.00
2022-08-12T02:02:39.530Z,0.00
2022-08-12T02:03:39.397Z,0.00
2022-08-12T02:04:39.367Z,0.00
2022-08-12T02:05:39.352Z,0.00
2022-08-12T02:06:39.345Z,0.00
2022-08-12T02:07:39.330Z,0.00
2022-08-12T02:08:39.336Z,0.00
2022-08-12T02:09:39.307Z,0.00
2022-08-12T02:10:50.133Z,0.00
2022-08-12T02:11:40.292Z,0.00
2022-08-12T02:12:39.286Z,0.00
2022-08-12T02:13:48.717Z,0.00
2022-08-12T02:14:40.263Z,0.00
2022-08-12T02:15:39.252Z,0.00
2022-08-12T02:16:39.252Z,0.00
2022-08-12T02:17:54.716Z,0.00
2022-08-12T02:18:40.241Z,0.00
2022-08-12T02:19:39.210Z,0.00
2022-08-12T02:20:51.928Z,0.00
2022-08-12T02:21:40.281Z,0.00
2022-08-12T02:22:39.468Z,0.00
2022-08-12T02:23:39.229Z,0.00
2022-08-12T02:24:39.163Z,0.00
2022-08-12T02:25:39.149Z,0.00
2022-08-12T02:26:39.147Z,0.00
2022-08-12T02:27:39.137Z,0.00
2022-08-12T02:28:39.147Z,0.00
2022-08-12T02:29:39.117Z,0.00
2022-08-12T02:30:41.989Z,0.00
2022-08-12T02:31:39.091Z,0.00
2022-08-12T02:32:39.289Z,0.00
2022-08-12T02:33:39.075Z,0.00
2022-08-12T02:34:39.080Z,0.00
2022-08-12T02:35:39.055Z,0.00
2022-08-12T02:36:39.047Z,0.00
2022-08-12T02:37:39.036Z,0.00
2022-08-12T02:38:39.044Z,0.00
2022-08-12T02:39:39.041Z,0.00
2022-08-12T02:40:39.016Z,0.00
2022-08-12T02:41:39.001Z,0.00
2022-08-12T02:42:39.184Z,0.00
2022-08-12T02:43:38.994Z,0.00
2022-08-12T02:44:38.974Z,0.00
2022-08-12T02:45:38.959Z,0.00
2022-08-12T02:46:38.947Z,0.00
2022-08-12T02:47:59.130Z,0.00
2022-08-12T02:48:39.947Z,0.00
2022-08-12T02:49:38.920Z,0.00
2022-08-12T02:50:38.914Z,0.00
2022-08-12T02:51:38.905Z,0.00
2022-08-12T02:52:39.020Z,0.00
2022-08-12T02:53:38.897Z,0.00
2022-08-12T02:54:38.964Z,0.00
2022-08-12T02:55:38.867Z,0.00
2022-08-12T02:56:38.859Z,0.00
2022-08-12T02:57:38.848Z,0.00
2022-08-12T02:58:41.347Z,0.00
2022-08-12T02:59:39.831Z,0.00
2022-08-12T03:00:38.842Z,0.00
2022-08-12T03:01:47.905Z,0.00
2022-08-12T03:02:39.917Z,0.00
2022-08-12T03:03:38.803Z,0.00
2022-08-12T03:04:43.474Z,0.00
2022-08-12T03:05:44.540Z,0.00
2022-08-12T03:06:38.758Z,0.00
2022-08-12T03:07:59.650Z,0.00
2022-08-12T03:08:39.752Z,0.00
2022-08-12T03:10:03.854Z,0.00
2022-08-12T03:10:39.717Z,0.00
2022-08-12T03:11:42.137Z,0.00
2022-08-12T03:12:48.895Z,0.00
2022-08-12T03:13:39.710Z,0.00
2022-08-12T03:14:38.773Z,0.00
2022-08-12T03:15:38.672Z,0.00
2022-08-12T03:16:38.661Z,0.00
2022-08-12T03:17:38.653Z,0.00
2022-08-12T03:18:38.652Z,0.00
2022-08-12T03:19:38.657Z,0.00
2022-08-12T03:20:39.640Z,0.00
2022-08-12T03:21:54.641Z,0.00
2022-08-12T03:22:39.735Z,0.00
2022-08-12T03:23:38.591Z,0.00
2022-08-12T03:24:38.599Z,0.00
2022-08-12T03:25:38.625Z,0.00
2022-08-12T03:26:38.563Z,0.00
2022-08-12T03:27:38.554Z,0.00
2022-08-12T03:28:38.546Z,0.00
2022-08-12T03:29:43.312Z,0.00
2022-08-12T03:30:39.526Z,0.00
2022-08-12T03:31:38.515Z,0.00
2022-08-12T03:32:38.507Z,0.00
2022-08-12T03:33:38.501Z,0.00
2022-08-12T03:34:38.499Z,0.00
2022-08-12T03:35:41.455Z,0.00
2022-08-12T03:36:38.571Z,0.00
2022-08-12T03:37:38.461Z,0.00
2022-08-12T03:38:38.450Z,0.00
2022-08-12T03:39:38.502Z,0.00
2022-08-12T03:40:38.422Z,0.00
2022-08-12T03:41:38.421Z,0.00
2022-08-12T03:42:38.442Z,0.00
2022-08-12T03:43:38.426Z,0.00
2022-08-12T03:44:38.391Z,0.00
2022-08-12T03:45:52.321Z,0.00
2022-08-12T03:46:39.364Z,0.00
2022-08-12T03:47:38.364Z,0.00
2022-08-12T03:48:38.369Z,0.00
2022-08-12T03:49:38.362Z,0.00
2022-08-12T03:50:38.336Z,0.00
2022-08-12T03:51:38.325Z,0.00
2022-08-12T03:52:38.335Z,0.00
2022-08-12T03:53:38.300Z,0.00
2022-08-12T03:54:42.430Z,0.00
2022-08-12T03:55:38.285Z,0.00
2022-08-12T03:56:38.274Z,0.00
2022-08-12T03:57:38.265Z,0.00
2022-08-12T03:58:38.253Z,0.00
2022-08-12T03:59:38.258Z,0.00
2022-08-12T04:00:38.280Z,0.00
2022-08-12T04:01:40.796Z,0.00
2022-08-12T04:02:38.285Z,5.62
2022-08-12T04:03:38.222Z,5.62
2022-08-12T04:04:38.197Z,5.62
2022-08-12T04:05:55.829Z,5.62
2022-08-12T04:06:39.211Z,5.62
2022-08-12T04:07:38.170Z,5.62
2022-08-12T04:08:39.170Z,5.62
2022-08-12T04:09:38.153Z,5.62
2022-08-12T04:10:38.138Z,5.62
2022-08-12T04:11:46.960Z,11.25
2022-08-12T04:12:39.117Z,11.25
2022-08-12T04:13:38.132Z,11.25
2022-08-12T04:14:38.100Z,11.25
2022-08-12T04:15:38.115Z,11.25
2022-08-12T04:16:38.084Z,11.25
2022-08-12T04:17:38.066Z,11.25
2022-08-12T04:18:39.075Z,16.88
2022-08-12T04:19:38.185Z,16.88
2022-08-12T04:20:38.043Z,16.88
2022-08-12T04:21:38.037Z,16.88
2022-08-12T04:22:39.206Z,16.88
2022-08-12T04:23:38.026Z,16.88
2022-08-12T04:24:40.781Z,22.50
2022-08-12T04:25:37.994Z,22.50
2022-08-12T04:26:37.980Z,22.50
2022-08-12T04:27:37.972Z,22.50
2022-08-12T04:28:37.976Z,22.50
2022-08-12T04:30:29.243Z,22.50
2022-08-12T04:30:38.942Z,28.12
2022-08-12T04:31:37.929Z,28.12
2022-08-12T04:32:43.752Z,28.12
2022-08-12T04:33:38.950Z,28.12
2022-08-12T04:34:37.924Z,28.12
2022-08-12T04:35:37.897Z,28.12
2022-08-12T04:36:37.885Z,33.75
2022-08-12T04:37:58.271Z,33.75
2022-08-12T04:38:38.882Z,33.75
2022-08-12T04:39:37.897Z,33.75
2022-08-12T04:40:37.854Z,33.75
2022-08-12T04:41:37.839Z,33.75
2022-08-12T04:42:38.884Z,39.38
2022-08-12T04:44:00.129Z,39.38
2022-08-12T04:44:38.820Z,39.38
2022-08-12T04:45:37.807Z,39.38
2022-08-12T04:46:37.793Z,39.38
2022-08-12T04:47:37.782Z,39.38
2022-08-12T04:48:37.769Z,39.38
2022-08-12T04:49:37.780Z,45.00
2022-08-12T04:50:37.751Z,45.00
2022-08-12T04:51:37.749Z,45.00
2022-08-12T04:52:37.868Z,45.00
2022-08-12T04:53:37.726Z,45.00
2022-08-12T04:54:37.737Z,45.00
2022-08-12T04:55:37.720Z,45.00
2022-08-12T04:56:37.702Z,50.62
2022-08-12T04:57:37.688Z,50.62
2022-08-12T04:58:37.691Z,50.62
2022-08-12T04:59:47.141Z,50.62
2022-08-12T05:00:38.662Z,50.62
2022-08-12T05:01:37.651Z,50.62
2022-08-12T05:02:37.666Z,50.62
2022-08-12T05:03:46.712Z,50.62
2022-08-12T05:04:38.778Z,56.25
2022-08-12T05:05:37.611Z,56.25
2022-08-12T05:06:37.596Z,56.25
2022-08-12T05:07:46.577Z,56.25
2022-08-12T05:08:38.585Z,56.25
2022-08-12T05:10:00.884Z,56.25
2022-08-12T05:10:38.558Z,56.25
2022-08-12T05:11:37.550Z,56.25
2022-08-12T05:12:38.601Z,61.88
2022-08-12T05:13:37.537Z,61.88
2022-08-12T05:14:37.861Z,61.88
2022-08-12T05:15:37.513Z,61.88
2022-08-12T05:16:38.501Z,61.88
2022-08-12T05:17:37.496Z,61.88
2022-08-12T05:18:39.076Z,61.88
2022-08-12T05:19:37.493Z,61.88
2022-08-12T05:20:37.464Z,61.88
2022-08-12T05:21:37.459Z,61.88
2022-08-12T05:22:37.447Z,67.50
2022-08-12T05:23:37.434Z,67.50
2022-08-12T05:24:37.452Z,67.50
2022-08-12T05:25:37.421Z,67.50
2022-08-12T05:26:37.404Z,67.50
2022-08-12T05:27:37.400Z,67.50
2022-08-12T05:28:37.384Z,67.50
2022-08-12T05:30:08.051Z,67.50
2022-08-12T05:30:38.360Z,67.50
2022-08-12T05:31:40.442Z,67.50
2022-08-12T05:32:38.369Z,73.12
2022-08-12T05:33:37.350Z,73.12
2022-08-12T05:34:37.344Z,73.12
2022-08-12T05:35:37.320Z,73.12
2022-08-12T05:36:37.372Z,73.12
2022-08-12T05:37:37.307Z,73.12
2022-08-12T05:38:37.290Z,73.12
2022-08-12T05:39:37.328Z,73.12
2022-08-12T05:40:37.271Z,73.12
2022-08-12T05:41:37.263Z,78.75
2022-08-12T05:42:37.262Z,78.75
2022-08-12T05:43:37.282Z,78.75
2022-08-12T05:44:37.243Z,78.75
2022-08-12T05:45:40.482Z,78.75
2022-08-12T05:46:37.222Z,90.00
2022-08-12T05:47:53.409Z,95.62
2022-08-12T05:48:38.189Z,95.62
2022-08-12T05:49:37.209Z,101.25
2022-08-12T05:50:37.175Z,106.88
2022-08-12T05:51:40.178Z,106.88
2022-08-12T05:52:37.154Z,106.88
2022-08-12T05:53:37.145Z,106.88
2022-08-12T05:54:56.689Z,106.88
2022-08-12T05:55:38.130Z,106.88
2022-08-12T05:56:37.169Z,112.50
2022-08-12T05:57:37.114Z,112.50
2022-08-12T05:58:37.096Z,112.50
2022-08-12T05:59:37.115Z,112.50
2022-08-12T06:00:37.144Z,112.50
2022-08-12T06:02:08.819Z,106.88
2022-08-12T06:02:38.065Z,112.50
2022-08-12T06:03:37.083Z,112.50
2022-08-12T06:04:37.041Z,112.50
2022-08-12T06:05:54.384Z,112.50
2022-08-12T06:06:39.719Z,112.50
2022-08-12T06:07:37.675Z,118.12
2022-08-12T06:08:38.000Z,118.12
2022-08-12T06:09:37.005Z,118.12
2022-08-12T06:10:36.982Z,118.12
2022-08-12T06:11:36.973Z,123.75
2022-08-12T06:12:36.962Z,123.75
2022-08-12T06:13:53.965Z,123.75
2022-08-12T06:14:38.035Z,123.75
2022-08-12T06:15:36.928Z,123.75
2022-08-12T06:16:36.921Z,129.38
2022-08-12T06:17:36.910Z,129.38
2022-08-12T06:18:36.898Z,129.38
2022-08-12T06:20:27.001Z,129.38
2022-08-12T06:20:37.882Z,135.00
2022-08-12T06:21:36.874Z,135.00
2022-08-12T06:22:36.868Z,135.00
2022-08-12T06:23:40.549Z,135.00
2022-08-12T06:24:36.856Z,135.00
2022-08-12T06:25:36.832Z,163.12
2022-08-12T06:26:36.826Z,168.75
2022-08-12T06:27:36.812Z,168.75
2022-08-12T06:28:37.802Z,168.75
2022-08-12T06:30:08.177Z,168.75
2022-08-12T06:30:39.450Z,168.75
2022-08-12T06:31:36.776Z,168.75
2022-08-12T06:32:42.902Z,168.75
2022-08-12T06:33:55.038Z,168.75
2022-08-12T06:35:26.610Z,168.75
2022-08-12T06:35:47.685Z,174.38
2022-08-12T06:36:37.721Z,174.38
2022-08-12T06:37:36.712Z,174.38
2022-08-12T06:38:36.705Z,174.38
2022-08-12T06:39:36.726Z,174.38
2022-08-12T06:40:36.677Z,180.00
2022-08-12T06:41:36.675Z,180.00
2022-08-12T06:42:36.662Z,180.00
2022-08-12T06:44:05.613Z,180.00
2022-08-12T06:44:37.657Z,180.00
2022-08-12T06:45:46.037Z,180.00
2022-08-12T06:46:37.624Z,180.00
2022-08-12T06:47:36.611Z,185.62
2022-08-12T06:48:36.595Z,185.62
2022-08-12T06:49:36.588Z,185.62
2022-08-12T06:50:39.897Z,185.62
2022-08-12T06:51:36.586Z,185.62
2022-08-12T06:52:36.560Z,191.25
2022-08-12T06:53:36.551Z,191.25
2022-08-12T06:54:36.542Z,191.25
2022-08-12T06:55:36.556Z,191.25
2022-08-12T06:58:05.548Z,191.25
2022-08-12T06:58:06.099Z,191.25
2022-08-12T06:58:37.517Z,196.88
2022-08-12T06:59:36.490Z,196.88
2022-08-12T07:00:36.538Z,196.88
2022-08-12T07:01:36.474Z,196.88
2022-08-12T07:02:37.272Z,196.88
2022-08-12T07:03:36.456Z,202.50
2022-08-12T07:04:37.775Z,202.50
2022-08-12T07:05:36.451Z,202.50
2022-08-12T07:06:36.442Z,202.50
2022-08-12T07:07:36.424Z,202.50
2022-08-12T07:08:36.414Z,208.12
2022-08-12T07:10:05.198Z,208.12
2022-08-12T07:10:37.406Z,208.12
2022-08-12T07:11:36.418Z,208.12
2022-08-12T07:12:36.376Z,208.12
2022-08-12T07:13:36.362Z,213.75
2022-08-12T07:14:40.658Z,213.75
2022-08-12T07:15:36.362Z,213.75
2022-08-12T07:16:36.339Z,213.75
2022-08-12T07:17:36.916Z,213.75
2022-08-12T07:18:36.319Z,213.75
2022-08-12T07:19:45.029Z,219.38
2022-08-12T07:20:52.170Z,219.38
2022-08-12T07:22:00.155Z,219.38
2022-08-12T07:22:37.282Z,219.38
2022-08-12T07:23:36.265Z,219.38
2022-08-12T07:24:36.256Z,219.38
2022-08-12T07:25:37.513Z,219.38
2022-08-12T07:26:37.263Z,219.38
2022-08-12T07:27:36.268Z,225.00
2022-08-12T07:28:36.260Z,225.00
2022-08-12T07:29:57.939Z,225.00
2022-08-12T07:30:37.211Z,225.00
2022-08-12T07:31:36.210Z,225.00
2022-08-12T07:32:36.199Z,225.00
2022-08-12T07:33:36.175Z,230.62
2022-08-12T07:34:36.164Z,230.62
2022-08-12T07:35:36.217Z,230.62
2022-08-12T07:36:36.142Z,236.25
2022-08-12T07:37:36.153Z,236.25
2022-08-12T07:38:36.135Z,236.25
2022-08-12T07:39:36.155Z,241.88
2022-08-12T07:40:36.126Z,241.88
2022-08-12T07:41:36.092Z,247.50
2022-08-12T07:42:36.079Z,247.50
2022-08-12T07:43:36.125Z,247.50
2022-08-12T07:44:36.066Z,253.12
2022-08-12T07:45:36.066Z,258.75
2022-08-12T07:46:36.085Z,275.62
2022-08-12T07:47:36.034Z,298.12
2022-08-12T07:48:36.028Z,461.25
2022-08-12T07:49:36.016Z,984.38
2022-08-12T07:50:37.029Z,1288.12
2022-08-12T07:51:35.993Z,1338.75
2022-08-12T07:52:36.024Z,1411.88
2022-08-12T07:53:47.723Z,1479.38
2022-08-12T07:54:36.964Z,1507.50
2022-08-12T07:55:35.968Z,1473.75
2022-08-12T07:56:35.948Z,1186.88
2022-08-12T07:57:35.935Z,646.88
2022-08-12T07:58:35.941Z,309.38
2022-08-12T07:59:35.923Z,303.75
2022-08-12T08:00:35.919Z,309.38
2022-08-12T08:01:35.955Z,354.38
2022-08-12T08:02:35.894Z,697.50
2022-08-12T08:03:35.871Z,1254.38
2022-08-12T08:04:36.868Z,1687.50
2022-08-12T08:05:35.856Z,1777.50
2022-08-12T08:06:36.358Z,1732.50
2022-08-12T08:07:35.838Z,1715.62
2022-08-12T08:08:35.826Z,1783.12
2022-08-12T08:09:35.814Z,1816.88
2022-08-12T08:10:35.842Z,1828.12
2022-08-12T08:11:35.810Z,1901.25
2022-08-12T08:12:35.853Z,1783.12
2022-08-12T08:13:35.774Z,1693.12
2022-08-12T08:14:35.782Z,1912.50
2022-08-12T08:16:36.767Z,1946.25
2022-08-12T08:17:35.743Z,2013.75
2022-08-12T08:18:35.731Z,2036.25
2022-08-12T08:20:01.992Z,1963.12
2022-08-12T08:20:36.748Z,1861.88
2022-08-12T08:21:35.723Z,1991.25
2022-08-12T08:22:41.984Z,2075.62
2022-08-12T08:23:37.202Z,2120.62
2022-08-12T08:24:35.677Z,2137.50
2022-08-12T08:25:37.629Z,1991.25
2022-08-12T08:26:35.675Z,1884.38
2022-08-12T08:27:35.650Z,2086.88
2022-08-12T08:28:35.643Z,2227.50
2022-08-12T08:29:35.638Z,2176.88
2022-08-12T08:30:35.622Z,2098.12
2022-08-12T08:31:35.625Z,1856.25
2022-08-12T08:32:35.667Z,1681.88
2022-08-12T08:34:05.181Z,1822.50
2022-08-12T08:34:53.071Z,1895.62
2022-08-12T08:35:47.650Z,2002.50
2022-08-12T08:36:36.585Z,2205.00
2022-08-12T08:37:37.063Z,2351.25
2022-08-12T08:38:35.611Z,2340.00
2022-08-12T08:39:35.601Z,2334.38
2022-08-12T08:40:35.564Z,2430.00
2022-08-12T08:42:15.456Z,2486.25
2022-08-12T08:42:36.519Z,2604.38
2022-08-12T08:43:44.377Z,2593.12
2022-08-12T08:44:36.500Z,2548.12
2022-08-12T08:45:35.491Z,2553.75
2022-08-12T08:46:35.494Z,2570.62
2022-08-12T08:47:35.465Z,2508.75
2022-08-12T08:48:35.460Z,2587.50
2022-08-12T08:49:35.452Z,2559.38
2022-08-12T08:50:35.440Z,2469.38
2022-08-12T08:51:35.443Z,2542.50
2022-08-12T08:52:39.442Z,2441.25
2022-08-12T08:53:36.416Z,2441.25
2022-08-12T08:54:35.408Z,2711.25
2022-08-12T08:56:03.322Z,2756.25
2022-08-12T08:56:36.404Z,2745.00
2022-08-12T08:57:43.130Z,2795.62
2022-08-12T08:58:36.374Z,2823.75
2022-08-12T08:59:35.366Z,2829.38
2022-08-12T09:00:35.360Z,2660.62
2022-08-12T09:01:37.517Z,2795.62
2022-08-12T09:02:35.367Z,2857.50
2022-08-12T09:05:08.572Z,2930.62
2022-08-12T09:05:13.457Z,2913.75
2022-08-12T09:06:01.563Z,2896.88
2022-08-12T09:06:37.364Z,2936.25
2022-08-12T09:07:43.895Z,2941.88
2022-08-12T09:08:36.291Z,2806.88
2022-08-12T09:10:02.945Z,2806.88
2022-08-12T09:10:36.278Z,2958.75
2022-08-12T09:12:06.904Z,2806.88
2022-08-12T09:12:36.283Z,2913.75
2022-08-12T09:14:10.927Z,3195.00
2022-08-12T09:14:36.242Z,3234.38
2022-08-12T09:15:36.248Z,3099.38
2022-08-12T09:16:40.902Z,3071.25
2022-08-12T09:18:36.211Z,3088.12
2022-08-12T09:19:35.203Z,3195.00
2022-08-12T09:20:35.196Z,3273.75
2022-08-12T09:21:54.744Z,3200.62
2022-08-12T09:22:36.196Z,3296.25
2022-08-12T09:23:59.322Z,3307.50
2022-08-12T09:24:36.215Z,3279.38
2022-08-12T09:25:35.152Z,3318.75
2022-08-12T09:26:38.152Z,3386.25
2022-08-12T09:28:04.316Z,3408.75
2022-08-12T09:28:36.897Z,3386.25
2022-08-12T09:30:11.668Z,3307.50
2022-08-12T09:30:41.085Z,3380.62
2022-08-12T09:32:03.132Z,3397.50
2022-08-12T09:33:05.200Z,3307.50
2022-08-12T09:34:26.120Z,3352.50
2022-08-12T09:34:42.036Z,3099.38
2022-08-12T09:35:43.186Z,2784.38
2022-08-12T09:36:58.353Z,2896.88
2022-08-12T09:37:58.513Z,3127.50
2022-08-12T09:38:36.959Z,3155.62
2022-08-12T09:40:02.081Z,3195.00
2022-08-12T09:41:01.408Z,3273.75
2022-08-12T09:42:33.658Z,3498.75
2022-08-12T09:42:44.047Z,3555.00
2022-08-12T09:43:36.048Z,3661.88
2022-08-12T09:44:39.026Z,3751.88
2022-08-12T09:46:06.402Z,3718.12
2022-08-12T09:46:36.046Z,3616.88
2022-08-12T09:47:34.991Z,3836.25
2022-08-12T09:48:36.070Z,3881.25
2022-08-12T09:49:38.538Z,3808.12
2022-08-12T09:50:34.947Z,3723.75
2022-08-12T09:51:37.308Z,3667.50
2022-08-12T09:52:34.990Z,3667.50
2022-08-12T09:53:38.587Z,3723.75
2022-08-12T09:54:36.209Z,3684.38
2022-08-12T09:56:06.990Z,3813.75
2022-08-12T09:57:02.861Z,3802.50
2022-08-12T09:58:44.902Z,3870.00
2022-08-12T09:58:57.242Z,3864.38
2022-08-12T10:00:12.618Z,3701.25
2022-08-12T10:00:51.693Z,3442.50
2022-08-12T10:02:52.606Z,4185.00
2022-08-12T10:02:53.070Z,3791.25
2022-08-12T10:03:35.941Z,3363.75
2022-08-12T10:04:35.966Z,4331.25
2022-08-12T10:06:19.665Z,3830.62
2022-08-12T10:06:36.897Z,3521.25
2022-08-12T10:07:39.431Z,4876.88
2022-08-12T10:08:34.830Z,4066.88
2022-08-12T10:09:57.339Z,3240.00
2022-08-12T10:10:40.397Z,4224.38
2022-08-12T10:12:10.616Z,4342.50
2022-08-12T10:12:35.786Z,3358.12
2022-08-12T10:13:40.194Z,3639.38
2022-08-12T10:14:36.750Z,4618.12
2022-08-12T10:16:02.844Z,4561.88
2022-08-12T10:16:39.464Z,3678.75
2022-08-12T10:17:34.760Z,3532.50
2022-08-12T10:18:36.093Z,4455.00
2022-08-12T10:19:36.847Z,4798.12
2022-08-12T10:20:34.731Z,4224.38
2022-08-12T10:21:36.468Z,3729.38
2022-08-12T10:22:39.327Z,4280.62
2022-08-12T10:23:40.156Z,4882.50
2022-08-12T10:24:35.704Z,4685.62
2022-08-12T10:26:34.269Z,4151.25
2022-08-12T10:26:38.974Z,3976.88
2022-08-12T10:27:39.477Z,4556.25
2022-08-12T10:28:35.693Z,4944.38
2022-08-12T10:30:02.784Z,4578.75
2022-08-12T10:30:40.011Z,4241.25
2022-08-12T10:31:47.423Z,4156.88
2022-08-12T10:32:45.205Z,4567.50
2022-08-12T10:33:54.798Z,4792.50
2022-08-12T10:34:35.636Z,4573.12
2022-08-12T10:35:38.249Z,4370.62
2022-08-12T10:36:39.849Z,4528.12
2022-08-12T10:38:36.643Z,4809.38
2022-08-12T10:38:41.568Z,4938.75
2022-08-12T10:40:01.781Z,4955.62
2022-08-12T10:40:37.903Z,4550.62
2022-08-12T10:41:57.876Z,4432.50
2022-08-12T10:42:35.577Z,4820.62
2022-08-12T10:43:54.024Z,4955.62
2022-08-12T10:44:35.568Z,4640.62
2022-08-12T10:45:38.142Z,4545.00
2022-08-12T10:46:34.552Z,4584.38
2022-08-12T10:48:19.638Z,5034.38
2022-08-12T10:48:35.548Z,5405.62
2022-08-12T10:50:02.982Z,5062.50
2022-08-12T10:50:56.710Z,4865.62
2022-08-12T10:52:04.611Z,4657.50
2022-08-12T10:52:47.166Z,4893.75
2022-08-12T10:53:45.475Z,4978.12
2022-08-12T10:54:36.261Z,4623.75
2022-08-12T10:55:35.502Z,4590.00
2022-08-12T10:56:35.421Z,4123.12
2022-08-12T10:58:13.728Z,3346.88
2022-08-12T10:58:35.480Z,2655.00
2022-08-12T11:00:01.327Z,2340.00
2022-08-12T11:00:55.358Z,2137.50
2022-08-12T11:04:19.351Z,2058.75
2022-08-12T11:04:24.245Z,2002.50
2022-08-12T11:04:26.120Z,2025.00
2022-08-12T11:04:43.747Z,1974.38
2022-08-12T11:07:03.708Z,1946.25
2022-08-12T11:07:05.076Z,1918.12
2022-08-12T11:08:37.766Z,1912.50
2022-08-12T11:08:42.414Z,1923.75
2022-08-12T11:09:54.232Z,1929.38
2022-08-12T11:10:35.465Z,1929.38
2022-08-12T11:12:37.053Z,1935.00
2022-08-12T11:12:59.307Z,1951.88
2022-08-12T11:13:45.827Z,1946.25
2022-08-12T11:14:49.591Z,1957.50
2022-08-12T11:16:19.884Z,1963.12
2022-08-12T11:16:35.495Z,1957.50
2022-08-12T11:17:43.827Z,1951.88
2022-08-12T11:18:35.340Z,1957.50
2022-08-12T11:19:34.443Z,1963.12
2022-08-12T11:20:34.327Z,1946.25
2022-08-12T11:21:57.130Z,1951.88
2022-08-12T11:22:35.486Z,1929.38
2022-08-12T11:23:36.928Z,1929.38
2022-08-12T11:24:34.344Z,1951.88
2022-08-12T11:25:53.715Z,1974.38
2022-08-12T11:26:35.293Z,1980.00
2022-08-12T11:27:34.288Z,1968.75
2022-08-12T11:28:37.653Z,1951.88
2022-08-12T11:30:02.213Z,1963.12
2022-08-12T11:30:35.292Z,1991.25
2022-08-12T11:31:52.661Z,2019.38
2022-08-12T11:32:38.832Z,2019.38
2022-08-12T11:34:06.822Z,2013.75
2022-08-12T11:34:53.266Z,1996.88
2022-08-12T11:35:35.241Z,1991.25
2022-08-12T11:36:36.277Z,2030.62
2022-08-12T11:37:57.717Z,2058.75
2022-08-12T11:38:35.193Z,2126.25
2022-08-12T11:40:03.581Z,2334.38
2022-08-12T11:40:35.174Z,2626.88
2022-08-12T11:41:34.166Z,3211.88
2022-08-12T11:42:34.165Z,4353.75
2022-08-12T11:43:50.748Z,5467.50
2022-08-12T11:44:42.878Z,5225.62
2022-08-12T11:45:38.943Z,4511.25
2022-08-12T11:46:34.136Z,4140.00
2022-08-12T11:47:34.135Z,3898.12
2022-08-12T11:48:52.234Z,4691.25
2022-08-12T11:49:35.143Z,4955.62
2022-08-12T11:50:34.121Z,4612.50
2022-08-12T11:51:36.531Z,4741.88
2022-08-12T11:52:53.906Z,5079.38
2022-08-12T11:53:57.263Z,5506.88
2022-08-12T11:54:35.118Z,5596.88
2022-08-12T11:55:34.096Z,5653.12
2022-08-12T11:56:38.126Z,5686.88
2022-08-12T11:58:33.815Z,5698.12
2022-08-12T12:01:05.634Z,5321.25
2022-08-12T12:02:01.024Z,4950.00
2022-08-12T12:02:35.119Z,4792.50
2022-08-12T12:03:40.444Z,4944.38
2022-08-12T12:04:35.047Z,5096.25
2022-08-12T12:05:41.726Z,4950.00
2022-08-12T12:06:35.034Z,4820.62
2022-08-12T12:08:37.500Z,5225.62
2022-08-12T12:08:38.309Z,5017.50
2022-08-12T12:09:52.763Z,5141.25
2022-08-12T12:10:35.024Z,5079.38
2022-08-12T12:11:39.119Z,5186.25
2022-08-12T12:12:34.998Z,5180.62
2022-08-12T12:14:06.924Z,5276.25
2022-08-12T12:14:38.141Z,5270.62
2022-08-12T12:15:40.968Z,5163.75
2022-08-12T12:16:38.304Z,4989.38
2022-08-12T12:17:38.564Z,4921.88
2022-08-12T12:18:33.971Z,5045.62
2022-08-12T12:19:45.456Z,5360.62
2022-08-12T12:20:35.013Z,5580.00
2022-08-12T12:21:48.681Z,5585.62
2022-08-12T12:22:34.958Z,5495.62
2022-08-12T12:23:36.179Z,5236.88
2022-08-12T12:24:33.945Z,5141.25
2022-08-12T12:26:07.512Z,5028.75
2022-08-12T12:26:36.983Z,4826.25
2022-08-12T12:28:01.973Z,5000.62
2022-08-12T12:28:37.327Z,5467.50
2022-08-12T12:30:18.377Z,5073.75
2022-08-12T12:30:34.935Z,4685.62
2022-08-12T12:32:08.954Z,4972.50
2022-08-12T12:32:34.903Z,5405.62
2022-08-12T12:33:57.295Z,5636.25
2022-08-12T12:34:34.914Z,5844.38
2022-08-12T12:36:18.460Z,5563.12
2022-08-12T12:36:34.887Z,4860.00
2022-08-12T12:38:04.710Z,4865.62
2022-08-12T12:38:34.871Z,5304.38
2022-08-12T12:39:55.688Z,5647.50
2022-08-12T12:40:34.867Z,5731.88
2022-08-12T12:42:40.685Z,5878.12
2022-08-12T12:42:45.409Z,5343.75